sensor_id;sensor_type;location;lat;lon;timestamp;P1;durP1;ratioP1;P2;durP2;ratioP2
27505;SDS011;14939;43.596;1.320;2022-12-20T00:00:15;17.52;;;5.65;;
27505;SDS011;14939;43.596;1.320;2022-12-20T00:02:41;22.38;;;5.43;;
27505;SDS011;14939;43.596;1.320;2022-12-20T00:05:07;21.15;;;5.30;;
27505;SDS011;14939;43.596;1.320;2022-12-20T00:07:33;16.33;;;4.88;;
27505;SDS011;14939;43.596;1.320;2022-12-20T00:09:59;27.45;;;5.78;;
27505;SDS011;14939;43.596;1.320;2022-12-20T00:12:25;19.58;;;5.25;;
27505;SDS011;14939;43.596;1.320;2022-12-20T00:14:51;19.33;;;5.38;;
27505;SDS011;14939;43.596;1.320;2022-12-20T00:17:16;25.58;;;5.10;;
27505;SDS011;14939;43.596;1.320;2022-12-20T00:19:43;22.73;;;5.50;;
27505;SDS011;14939;43.596;1.320;2022-12-20T00:22:09;19.23;;;5.10;;
27505;SDS011;14939;43.596;1.320;2022-12-20T00:24:35;18.13;;;5.10;;
27505;SDS011;14939;43.596;1.320;2022-12-20T00:27:00;17.27;;;4.90;;
27505;SDS011;14939;43.596;1.320;2022-12-20T00:29:26;20.17;;;5.57;;
27505;SDS011;14939;43.596;1.320;2022-12-20T00:31:52;18.00;;;5.38;;
27505;SDS011;14939;43.596;1.320;2022-12-20T00:34:18;19.73;;;5.13;;
27505;SDS011;14939;43.596;1.320;2022-12-20T00:36:43;19.75;;;4.78;;
27505;SDS011;14939;43.596;1.320;2022-12-20T00:39:09;13.93;;;5.15;;
27505;SDS011;14939;43.596;1.320;2022-12-20T00:41:35;16.02;;;4.72;;
27505;SDS011;14939;43.596;1.320;2022-12-20T00:44:01;17.80;;;5.70;;
27505;SDS011;14939;43.596;1.320;2022-12-20T00:46:28;17.40;;;4.93;;
27505;SDS011;14939;43.596;1.320;2022-12-20T00:48:55;23.27;;;4.95;;
27505;SDS011;14939;43.596;1.320;2022-12-20T00:51:25;21.58;;;5.25;;
27505;SDS011;14939;43.596;1.320;2022-12-20T00:53:53;16.50;;;4.70;;
27505;SDS011;14939;43.596;1.320;2022-12-20T00:56:19;21.65;;;5.13;;
27505;SDS011;14939;43.596;1.320;2022-12-20T00:58:46;20.05;;;5.32;;
27505;SDS011;14939;43.596;1.320;2022-12-20T01:03:43;14.43;;;5.07;;
27505;SDS011;14939;43.596;1.320;2022-12-20T01:06:08;17.35;;;5.20;;
27505;SDS011;14939;43.596;1.320;2022-12-20T01:08:34;20.25;;;5.07;;
27505;SDS011;14939;43.596;1.320;2022-12-20T01:11:04;16.98;;;5.13;;
27505;SDS011;14939;43.596;1.320;2022-12-20T01:13:34;16.63;;;4.90;;
27505;SDS011;14939;43.596;1.320;2022-12-20T01:16:08;26.20;;;5.43;;
27505;SDS011;14939;43.596;1.320;2022-12-20T01:18:39;27.45;;;5.57;;
27505;SDS011;14939;43.596;1.320;2022-12-20T01:21:06;19.63;;;5.28;;
27505;SDS011;14939;43.596;1.320;2022-12-20T01:23:33;20.60;;;5.35;;
27505;SDS011;14939;43.596;1.320;2022-12-20T01:26:00;21.33;;;5.03;;
27505;SDS011;14939;43.596;1.320;2022-12-20T01:28:28;16.90;;;5.03;;
27505;SDS011;14939;43.596;1.320;2022-12-20T01:30:54;21.50;;;5.47;;
27505;SDS011;14939;43.596;1.320;2022-12-20T01:33:20;22.52;;;5.50;;
27505;SDS011;14939;43.596;1.320;2022-12-20T01:35:56;18.95;;;5.07;;
27505;SDS011;14939;43.596;1.320;2022-12-20T01:38:33;22.77;;;5.45;;
27505;SDS011;14939;43.596;1.320;2022-12-20T01:40:59;17.98;;;4.55;;
27505;SDS011;14939;43.596;1.320;2022-12-20T01:46:16;17.15;;;4.97;;
27505;SDS011;14939;43.596;1.320;2022-12-20T01:48:43;21.75;;;5.10;;
27505;SDS011;14939;43.596;1.320;2022-12-20T01:51:17;20.48;;;4.60;;
27505;SDS011;14939;43.596;1.320;2022-12-20T01:53:44;17.90;;;4.57;;
27505;SDS011;14939;43.596;1.320;2022-12-20T01:56:11;17.02;;;4.68;;
27505;SDS011;14939;43.596;1.320;2022-12-20T01:58:37;19.15;;;4.72;;
27505;SDS011;14939;43.596;1.320;2022-12-20T02:01:04;20.08;;;4.55;;
27505;SDS011;14939;43.596;1.320;2022-12-20T02:03:30;17.70;;;5.05;;
27505;SDS011;14939;43.596;1.320;2022-12-20T02:05:57;14.25;;;4.28;;
27505;SDS011;14939;43.596;1.320;2022-12-20T02:08:41;18.98;;;4.55;;
27505;SDS011;14939;43.596;1.320;2022-12-20T02:11:55;20.02;;;4.68;;
27505;SDS011;14939;43.596;1.320;2022-12-20T02:17:05;19.98;;;4.60;;
27505;SDS011;14939;43.596;1.320;2022-12-20T02:28:02;11.82;;;4.22;;
27505;SDS011;14939;43.596;1.320;2022-12-20T02:30:35;18.40;;;4.72;;
27505;SDS011;14939;43.596;1.320;2022-12-20T02:33:06;18.85;;;4.35;;
27505;SDS011;14939;43.596;1.320;2022-12-20T02:35:36;20.00;;;4.40;;
27505;SDS011;14939;43.596;1.320;2022-12-20T02:38:23;23.35;;;5.10;;
27505;SDS011;14939;43.596;1.320;2022-12-20T02:40:52;15.45;;;4.18;;
27505;SDS011;14939;43.596;1.320;2022-12-20T02:43:23;25.60;;;4.50;;
27505;SDS011;14939;43.596;1.320;2022-12-20T02:46:10;19.70;;;5.05;;
27505;SDS011;14939;43.596;1.320;2022-12-20T02:48:37;14.80;;;4.63;;
27505;SDS011;14939;43.596;1.320;2022-12-20T02:51:04;14.52;;;4.53;;
27505;SDS011;14939;43.596;1.320;2022-12-20T02:53:31;14.73;;;4.20;;
27505;SDS011;14939;43.596;1.320;2022-12-20T02:56:00;16.58;;;4.30;;
27505;SDS011;14939;43.596;1.320;2022-12-20T02:58:37;16.88;;;4.85;;
27505;SDS011;14939;43.596;1.320;2022-12-20T03:01:23;17.77;;;4.53;;
27505;SDS011;14939;43.596;1.320;2022-12-20T03:04:01;15.57;;;4.25;;
27505;SDS011;14939;43.596;1.320;2022-12-20T03:06:28;17.15;;;4.70;;
27505;SDS011;14939;43.596;1.320;2022-12-20T03:08:57;14.10;;;4.35;;
27505;SDS011;14939;43.596;1.320;2022-12-20T03:11:23;17.85;;;4.32;;
27505;SDS011;14939;43.596;1.320;2022-12-20T03:13:48;13.88;;;4.30;;
27505;SDS011;14939;43.596;1.320;2022-12-20T03:16:14;16.05;;;4.65;;
27505;SDS011;14939;43.596;1.320;2022-12-20T03:18:40;15.65;;;4.40;;
27505;SDS011;14939;43.596;1.320;2022-12-20T03:21:06;13.25;;;4.10;;
27505;SDS011;14939;43.596;1.320;2022-12-20T03:23:32;13.57;;;4.10;;
27505;SDS011;14939;43.596;1.320;2022-12-20T03:25:58;14.73;;;4.25;;
27505;SDS011;14939;43.596;1.320;2022-12-20T03:28:24;16.23;;;4.45;;
27505;SDS011;14939;43.596;1.320;2022-12-20T03:30:49;14.35;;;4.35;;
27505;SDS011;14939;43.596;1.320;2022-12-20T03:33:15;14.10;;;4.30;;
27505;SDS011;14939;43.596;1.320;2022-12-20T03:35:41;10.70;;;3.90;;
27505;SDS011;14939;43.596;1.320;2022-12-20T03:38:07;13.45;;;4.28;;
27505;SDS011;14939;43.596;1.320;2022-12-20T03:40:32;16.08;;;3.92;;
27505;SDS011;14939;43.596;1.320;2022-12-20T03:42:58;15.48;;;4.00;;
27505;SDS011;14939;43.596;1.320;2022-12-20T03:45:24;12.13;;;4.18;;
27505;SDS011;14939;43.596;1.320;2022-12-20T03:47:50;13.00;;;3.90;;
27505;SDS011;14939;43.596;1.320;2022-12-20T03:50:15;16.17;;;3.85;;
27505;SDS011;14939;43.596;1.320;2022-12-20T03:52:41;12.70;;;3.70;;
27505;SDS011;14939;43.596;1.320;2022-12-20T03:55:07;15.57;;;4.32;;
27505;SDS011;14939;43.596;1.320;2022-12-20T03:57:33;10.18;;;4.10;;
27505;SDS011;14939;43.596;1.320;2022-12-20T03:59:59;14.70;;;3.78;;
27505;SDS011;14939;43.596;1.320;2022-12-20T04:02:25;14.57;;;3.70;;
27505;SDS011;14939;43.596;1.320;2022-12-20T04:04:51;14.68;;;3.90;;
27505;SDS011;14939;43.596;1.320;2022-12-20T04:07:17;11.73;;;3.92;;
27505;SDS011;14939;43.596;1.320;2022-12-20T04:09:42;17.05;;;3.65;;
27505;SDS011;14939;43.596;1.320;2022-12-20T04:12:08;13.02;;;3.63;;
27505;SDS011;14939;43.596;1.320;2022-12-20T04:14:34;16.55;;;4.30;;
27505;SDS011;14939;43.596;1.320;2022-12-20T04:17:01;16.05;;;3.67;;
27505;SDS011;14939;43.596;1.320;2022-12-20T04:19:27;17.88;;;4.00;;
27505;SDS011;14939;43.596;1.320;2022-12-20T04:21:53;17.23;;;4.28;;
27505;SDS011;14939;43.596;1.320;2022-12-20T04:24:20;16.48;;;4.13;;
27505;SDS011;14939;43.596;1.320;2022-12-20T04:26:46;16.17;;;3.95;;
27505;SDS011;14939;43.596;1.320;2022-12-20T04:29:13;17.25;;;4.40;;
27505;SDS011;14939;43.596;1.320;2022-12-20T04:31:39;15.10;;;4.07;;
27505;SDS011;14939;43.596;1.320;2022-12-20T04:34:05;15.65;;;4.45;;
27505;SDS011;14939;43.596;1.320;2022-12-20T04:36:31;17.33;;;3.95;;
27505;SDS011;14939;43.596;1.320;2022-12-20T04:38:56;15.93;;;4.20;;
27505;SDS011;14939;43.596;1.320;2022-12-20T04:41:22;14.25;;;4.15;;
27505;SDS011;14939;43.596;1.320;2022-12-20T04:43:52;14.10;;;3.92;;
27505;SDS011;14939;43.596;1.320;2022-12-20T04:46:20;15.20;;;4.70;;
27505;SDS011;14939;43.596;1.320;2022-12-20T04:48:47;14.05;;;4.22;;
27505;SDS011;14939;43.596;1.320;2022-12-20T04:51:14;17.25;;;4.47;;
27505;SDS011;14939;43.596;1.320;2022-12-20T04:53:40;16.05;;;4.75;;
27505;SDS011;14939;43.596;1.320;2022-12-20T04:56:16;15.20;;;4.40;;
27505;SDS011;14939;43.596;1.320;2022-12-20T04:58:43;23.33;;;4.60;;
27505;SDS011;14939;43.596;1.320;2022-12-20T05:01:09;18.15;;;4.45;;
27505;SDS011;14939;43.596;1.320;2022-12-20T05:03:35;16.30;;;4.05;;
27505;SDS011;14939;43.596;1.320;2022-12-20T05:06:01;20.38;;;5.05;;
27505;SDS011;14939;43.596;1.320;2022-12-20T05:08:28;14.48;;;4.60;;
27505;SDS011;14939;43.596;1.320;2022-12-20T05:10:54;23.33;;;5.15;;
27505;SDS011;14939;43.596;1.320;2022-12-20T05:13:20;15.68;;;4.45;;
27505;SDS011;14939;43.596;1.320;2022-12-20T05:15:49;20.60;;;4.65;;
27505;SDS011;14939;43.596;1.320;2022-12-20T05:18:16;18.38;;;5.90;;
27505;SDS011;14939;43.596;1.320;2022-12-20T05:20:42;18.85;;;4.85;;
27505;SDS011;14939;43.596;1.320;2022-12-20T05:23:08;20.13;;;4.80;;
27505;SDS011;14939;43.596;1.320;2022-12-20T05:25:53;17.48;;;4.30;;
27505;SDS011;14939;43.596;1.320;2022-12-20T05:28:38;20.75;;;4.43;;
27505;SDS011;14939;43.596;1.320;2022-12-20T05:31:04;19.90;;;4.38;;
27505;SDS011;14939;43.596;1.320;2022-12-20T05:33:30;17.67;;;4.63;;
27505;SDS011;14939;43.596;1.320;2022-12-20T05:35:56;20.17;;;4.90;;
27505;SDS011;14939;43.596;1.320;2022-12-20T05:38:22;20.35;;;5.30;;
27505;SDS011;14939;43.596;1.320;2022-12-20T05:40:48;13.93;;;4.80;;
27505;SDS011;14939;43.596;1.320;2022-12-20T05:43:15;15.57;;;4.82;;
27505;SDS011;14939;43.596;1.320;2022-12-20T05:45:45;17.08;;;4.40;;
27505;SDS011;14939;43.596;1.320;2022-12-20T05:48:15;16.90;;;5.07;;
27505;SDS011;14939;43.596;1.320;2022-12-20T05:50:42;18.50;;;4.35;;
27505;SDS011;14939;43.596;1.320;2022-12-20T05:53:12;16.58;;;4.75;;
27505;SDS011;14939;43.596;1.320;2022-12-20T05:55:46;17.33;;;4.53;;
27505;SDS011;14939;43.596;1.320;2022-12-20T05:58:14;19.77;;;4.40;;
27505;SDS011;14939;43.596;1.320;2022-12-20T06:00:40;12.85;;;4.07;;
27505;SDS011;14939;43.596;1.320;2022-12-20T06:03:06;14.63;;;4.30;;
27505;SDS011;14939;43.596;1.320;2022-12-20T06:05:35;13.27;;;3.53;;
27505;SDS011;14939;43.596;1.320;2022-12-20T06:08:01;15.32;;;3.67;;
27505;SDS011;14939;43.596;1.320;2022-12-20T06:10:27;15.35;;;3.85;;
27505;SDS011;14939;43.596;1.320;2022-12-20T06:12:53;12.95;;;3.70;;
27505;SDS011;14939;43.596;1.320;2022-12-20T06:15:19;17.40;;;3.90;;
27505;SDS011;14939;43.596;1.320;2022-12-20T06:17:44;18.95;;;4.22;;
27505;SDS011;14939;43.596;1.320;2022-12-20T06:20:10;19.95;;;4.40;;
27505;SDS011;14939;43.596;1.320;2022-12-20T06:22:36;16.58;;;4.72;;
27505;SDS011;14939;43.596;1.320;2022-12-20T06:25:02;14.55;;;4.55;;
27505;SDS011;14939;43.596;1.320;2022-12-20T06:27:29;16.45;;;5.68;;
27505;SDS011;14939;43.596;1.320;2022-12-20T06:29:55;18.60;;;4.82;;
27505;SDS011;14939;43.596;1.320;2022-12-20T06:32:21;16.85;;;4.57;;
27505;SDS011;14939;43.596;1.320;2022-12-20T06:34:46;13.50;;;4.60;;
27505;SDS011;14939;43.596;1.320;2022-12-20T06:37:12;18.23;;;4.60;;
27505;SDS011;14939;43.596;1.320;2022-12-20T06:39:38;19.05;;;4.47;;
27505;SDS011;14939;43.596;1.320;2022-12-20T06:42:04;21.50;;;4.68;;
27505;SDS011;14939;43.596;1.320;2022-12-20T06:44:31;14.18;;;4.05;;
27505;SDS011;14939;43.596;1.320;2022-12-20T06:46:56;15.15;;;4.03;;
27505;SDS011;14939;43.596;1.320;2022-12-20T06:49:22;19.13;;;5.10;;
27505;SDS011;14939;43.596;1.320;2022-12-20T06:51:48;12.80;;;4.22;;
27505;SDS011;14939;43.596;1.320;2022-12-20T06:54:13;22.00;;;4.95;;
27505;SDS011;14939;43.596;1.320;2022-12-20T06:56:39;18.27;;;4.93;;
27505;SDS011;14939;43.596;1.320;2022-12-20T06:59:05;15.27;;;3.80;;
27505;SDS011;14939;43.596;1.320;2022-12-20T07:01:30;13.60;;;4.50;;
27505;SDS011;14939;43.596;1.320;2022-12-20T07:03:56;16.73;;;4.57;;
27505;SDS011;14939;43.596;1.320;2022-12-20T07:06:22;20.55;;;5.00;;
27505;SDS011;14939;43.596;1.320;2022-12-20T07:08:48;12.45;;;4.15;;
27505;SDS011;14939;43.596;1.320;2022-12-20T07:11:14;18.65;;;4.38;;
27505;SDS011;14939;43.596;1.320;2022-12-20T07:13:39;16.00;;;4.00;;
27505;SDS011;14939;43.596;1.320;2022-12-20T07:16:05;18.00;;;4.30;;
27505;SDS011;14939;43.596;1.320;2022-12-20T07:18:31;18.30;;;3.80;;
27505;SDS011;14939;43.596;1.320;2022-12-20T07:20:59;15.25;;;4.47;;
27505;SDS011;14939;43.596;1.320;2022-12-20T07:23:26;19.73;;;4.30;;
27505;SDS011;14939;43.596;1.320;2022-12-20T07:25:55;18.00;;;4.22;;
27505;SDS011;14939;43.596;1.320;2022-12-20T07:28:22;15.23;;;4.50;;
27505;SDS011;14939;43.596;1.320;2022-12-20T07:30:49;19.95;;;4.43;;
27505;SDS011;14939;43.596;1.320;2022-12-20T07:33:15;16.95;;;4.40;;
27505;SDS011;14939;43.596;1.320;2022-12-20T07:35:41;19.45;;;5.00;;
27505;SDS011;14939;43.596;1.320;2022-12-20T07:38:08;18.92;;;4.53;;
27505;SDS011;14939;43.596;1.320;2022-12-20T07:40:33;21.20;;;5.03;;
27505;SDS011;14939;43.596;1.320;2022-12-20T07:42:59;15.93;;;4.43;;
27505;SDS011;14939;43.596;1.320;2022-12-20T07:45:25;17.88;;;4.38;;
27505;SDS011;14939;43.596;1.320;2022-12-20T07:47:50;12.23;;;4.38;;
27505;SDS011;14939;43.596;1.320;2022-12-20T07:50:17;16.83;;;5.00;;
27505;SDS011;14939;43.596;1.320;2022-12-20T07:52:42;18.13;;;4.45;;
27505;SDS011;14939;43.596;1.320;2022-12-20T07:55:10;15.02;;;4.10;;
27505;SDS011;14939;43.596;1.320;2022-12-20T07:57:39;16.15;;;4.45;;
27505;SDS011;14939;43.596;1.320;2022-12-20T08:00:13;17.33;;;4.47;;
27505;SDS011;14939;43.596;1.320;2022-12-20T08:03:02;22.98;;;4.65;;
27505;SDS011;14939;43.596;1.320;2022-12-20T08:05:25;17.00;;;4.63;;
27505;SDS011;14939;43.596;1.320;2022-12-20T08:07:53;17.85;;;4.53;;
27505;SDS011;14939;43.596;1.320;2022-12-20T08:10:20;17.10;;;4.10;;
27505;SDS011;14939;43.596;1.320;2022-12-20T08:12:46;17.40;;;4.15;;
27505;SDS011;14939;43.596;1.320;2022-12-20T08:15:13;18.17;;;4.00;;
27505;SDS011;14939;43.596;1.320;2022-12-20T08:17:39;10.50;;;3.70;;
27505;SDS011;14939;43.596;1.320;2022-12-20T08:20:05;15.48;;;4.45;;
27505;SDS011;14939;43.596;1.320;2022-12-20T08:22:32;17.70;;;4.15;;
27505;SDS011;14939;43.596;1.320;2022-12-20T08:24:59;17.65;;;4.45;;
27505;SDS011;14939;43.596;1.320;2022-12-20T08:27:24;18.40;;;4.65;;
27505;SDS011;14939;43.596;1.320;2022-12-20T08:29:50;15.25;;;4.18;;
27505;SDS011;14939;43.596;1.320;2022-12-20T08:32:16;14.73;;;4.63;;
27505;SDS011;14939;43.596;1.320;2022-12-20T08:34:41;17.83;;;4.68;;
27505;SDS011;14939;43.596;1.320;2022-12-20T08:37:07;17.60;;;4.25;;
27505;SDS011;14939;43.596;1.320;2022-12-20T08:39:33;15.80;;;4.88;;
27505;SDS011;14939;43.596;1.320;2022-12-20T08:41:58;18.38;;;5.07;;
27505;SDS011;14939;43.596;1.320;2022-12-20T08:44:24;14.52;;;4.32;;
27505;SDS011;14939;43.596;1.320;2022-12-20T08:46:50;17.00;;;4.53;;
27505;SDS011;14939;43.596;1.320;2022-12-20T08:49:15;17.13;;;4.13;;
27505;SDS011;14939;43.596;1.320;2022-12-20T08:51:41;15.23;;;3.78;;
27505;SDS011;14939;43.596;1.320;2022-12-20T08:54:07;16.05;;;3.88;;
27505;SDS011;14939;43.596;1.320;2022-12-20T08:56:33;16.83;;;3.80;;
27505;SDS011;14939;43.596;1.320;2022-12-20T08:58:58;17.15;;;3.75;;
27505;SDS011;14939;43.596;1.320;2022-12-20T09:01:24;16.80;;;3.90;;
27505;SDS011;14939;43.596;1.320;2022-12-20T09:03:51;15.73;;;4.13;;
27505;SDS011;14939;43.596;1.320;2022-12-20T09:06:20;12.55;;;3.50;;
27505;SDS011;14939;43.596;1.320;2022-12-20T09:08:47;17.48;;;4.15;;
27505;SDS011;14939;43.596;1.320;2022-12-20T09:11:20;10.85;;;3.50;;
27505;SDS011;14939;43.596;1.320;2022-12-20T09:13:49;16.95;;;4.10;;
27505;SDS011;14939;43.596;1.320;2022-12-20T09:16:17;15.25;;;4.30;;
27505;SDS011;14939;43.596;1.320;2022-12-20T09:18:52;13.60;;;3.72;;
27505;SDS011;14939;43.596;1.320;2022-12-20T09:21:19;14.65;;;4.35;;
27505;SDS011;14939;43.596;1.320;2022-12-20T09:23:46;14.40;;;4.03;;
27505;SDS011;14939;43.596;1.320;2022-12-20T09:26:14;17.83;;;3.97;;
27505;SDS011;14939;43.596;1.320;2022-12-20T09:28:41;19.13;;;4.40;;
27505;SDS011;14939;43.596;1.320;2022-12-20T09:31:10;17.67;;;4.47;;
27505;SDS011;14939;43.596;1.320;2022-12-20T09:33:37;13.40;;;3.80;;
27505;SDS011;14939;43.596;1.320;2022-12-20T09:36:03;19.20;;;4.15;;
27505;SDS011;14939;43.596;1.320;2022-12-20T09:38:29;11.45;;;4.22;;
27505;SDS011;14939;43.596;1.320;2022-12-20T09:41:00;17.40;;;4.20;;
27505;SDS011;14939;43.596;1.320;2022-12-20T09:43:29;16.77;;;3.90;;
27505;SDS011;14939;43.596;1.320;2022-12-20T09:45:57;14.90;;;4.05;;
27505;SDS011;14939;43.596;1.320;2022-12-20T09:48:31;17.70;;;4.38;;
27505;SDS011;14939;43.596;1.320;2022-12-20T09:58:55;16.33;;;3.88;;
27505;SDS011;14939;43.596;1.320;2022-12-20T10:01:26;16.80;;;4.10;;
27505;SDS011;14939;43.596;1.320;2022-12-20T10:03:53;13.45;;;3.65;;
27505;SDS011;14939;43.596;1.320;2022-12-20T10:06:31;11.38;;;3.58;;
27505;SDS011;14939;43.596;1.320;2022-12-20T10:25:57;15.10;;;3.92;;
27505;SDS011;14939;43.596;1.320;2022-12-20T10:28:27;22.02;;;4.00;;
27505;SDS011;14939;43.596;1.320;2022-12-20T10:31:03;16.90;;;3.80;;
27505;SDS011;14939;43.596;1.320;2022-12-20T10:38:53;13.43;;;3.92;;
27505;SDS011;14939;43.596;1.320;2022-12-20T10:41:22;14.35;;;4.47;;
27505;SDS011;14939;43.596;1.320;2022-12-20T10:43:53;12.00;;;3.92;;
27505;SDS011;14939;43.596;1.320;2022-12-20T10:52:02;13.30;;;3.35;;
27505;SDS011;14939;43.596;1.320;2022-12-20T10:54:32;10.90;;;3.10;;
27505;SDS011;14939;43.596;1.320;2022-12-20T10:56:59;17.67;;;4.13;;
27505;SDS011;14939;43.596;1.320;2022-12-20T10:59:35;12.20;;;3.92;;
27505;SDS011;14939;43.596;1.320;2022-12-20T11:02:19;17.05;;;4.25;;
27505;SDS011;14939;43.596;1.320;2022-12-20T11:05:52;14.23;;;3.70;;
27505;SDS011;14939;43.596;1.320;2022-12-20T11:10:20;14.07;;;3.88;;
27505;SDS011;14939;43.596;1.320;2022-12-20T11:12:54;18.02;;;4.15;;
27505;SDS011;14939;43.596;1.320;2022-12-20T11:15:22;16.83;;;3.47;;
27505;SDS011;14939;43.596;1.320;2022-12-20T11:36:31;13.95;;;3.75;;
27505;SDS011;14939;43.596;1.320;2022-12-20T11:41:59;18.10;;;5.40;;
27505;SDS011;14939;43.596;1.320;2022-12-20T11:44:39;16.05;;;3.65;;
27505;SDS011;14939;43.596;1.320;2022-12-20T11:50:16;13.77;;;3.40;;
27505;SDS011;14939;43.596;1.320;2022-12-20T11:55:32;14.60;;;4.05;;
27505;SDS011;14939;43.596;1.320;2022-12-20T12:00:40;14.13;;;3.20;;
27505;SDS011;14939;43.596;1.320;2022-12-20T12:03:13;14.00;;;3.80;;
27505;SDS011;14939;43.596;1.320;2022-12-20T12:05:42;15.82;;;3.72;;
27505;SDS011;14939;43.596;1.320;2022-12-20T12:08:54;17.25;;;3.97;;
27505;SDS011;14939;43.596;1.320;2022-12-20T12:11:04;12.93;;;3.33;;
27505;SDS011;14939;43.596;1.320;2022-12-20T12:13:38;15.32;;;3.30;;
27505;SDS011;14939;43.596;1.320;2022-12-20T12:16:07;10.70;;;3.33;;
27505;SDS011;14939;43.596;1.320;2022-12-20T12:18:37;15.68;;;3.72;;
27505;SDS011;14939;43.596;1.320;2022-12-20T12:23:40;12.30;;;3.38;;
27505;SDS011;14939;43.596;1.320;2022-12-20T12:26:54;13.40;;;3.40;;
27505;SDS011;14939;43.596;1.320;2022-12-20T12:29:00;13.75;;;3.10;;
27505;SDS011;14939;43.596;1.320;2022-12-20T12:46:14;14.90;;;2.95;;
27505;SDS011;14939;43.596;1.320;2022-12-20T12:48:40;12.77;;;3.53;;
27505;SDS011;14939;43.596;1.320;2022-12-20T12:51:13;16.50;;;3.35;;
27505;SDS011;14939;43.596;1.320;2022-12-20T12:53:45;12.30;;;3.33;;
27505;SDS011;14939;43.596;1.320;2022-12-20T13:01:52;14.18;;;3.60;;
27505;SDS011;14939;43.596;1.320;2022-12-20T13:04:52;11.98;;;3.33;;
27505;SDS011;14939;43.596;1.320;2022-12-20T13:20:20;11.95;;;3.25;;
27505;SDS011;14939;43.596;1.320;2022-12-20T13:25:46;15.50;;;3.17;;
27505;SDS011;14939;43.596;1.320;2022-12-20T13:33:40;14.02;;;3.50;;
27505;SDS011;14939;43.596;1.320;2022-12-20T13:43:56;18.63;;;4.03;;
27505;SDS011;14939;43.596;1.320;2022-12-20T13:51:46;13.40;;;3.72;;
27505;SDS011;14939;43.596;1.320;2022-12-20T13:54:16;16.70;;;3.33;;
27505;SDS011;14939;43.596;1.320;2022-12-20T13:59:30;9.55;;;3.47;;
27505;SDS011;14939;43.596;1.320;2022-12-20T14:01:57;11.23;;;3.92;;
27505;SDS011;14939;43.596;1.320;2022-12-20T14:04:25;11.75;;;3.40;;
27505;SDS011;14939;43.596;1.320;2022-12-20T14:07:02;15.82;;;4.18;;
27505;SDS011;14939;43.596;1.320;2022-12-20T14:09:33;14.15;;;3.25;;
27505;SDS011;14939;43.596;1.320;2022-12-20T14:12:04;12.60;;;3.67;;
27505;SDS011;14939;43.596;1.320;2022-12-20T14:14:45;14.25;;;3.80;;
27505;SDS011;14939;43.596;1.320;2022-12-20T14:17:25;15.57;;;3.63;;
27505;SDS011;14939;43.596;1.320;2022-12-20T14:28:04;5.90;;;3.10;;
27505;SDS011;14939;43.596;1.320;2022-12-20T14:30:35;11.70;;;3.28;;
27505;SDS011;14939;43.596;1.320;2022-12-20T14:33:15;11.63;;;3.05;;
27505;SDS011;14939;43.596;1.320;2022-12-20T14:35:52;10.52;;;3.45;;
27505;SDS011;14939;43.596;1.320;2022-12-20T14:38:22;13.57;;;3.22;;
27505;SDS011;14939;43.596;1.320;2022-12-20T14:40:52;14.80;;;3.38;;
27505;SDS011;14939;43.596;1.320;2022-12-20T14:43:33;13.32;;;3.67;;
27505;SDS011;14939;43.596;1.320;2022-12-20T14:46:14;10.70;;;3.30;;
27505;SDS011;14939;43.596;1.320;2022-12-20T14:48:43;15.02;;;3.42;;
27505;SDS011;14939;43.596;1.320;2022-12-20T14:51:10;15.63;;;3.05;;
27505;SDS011;14939;43.596;1.320;2022-12-20T14:53:38;14.07;;;3.45;;
27505;SDS011;14939;43.596;1.320;2022-12-20T14:56:04;16.35;;;3.70;;
27505;SDS011;14939;43.596;1.320;2022-12-20T14:58:37;11.20;;;3.50;;
27505;SDS011;14939;43.596;1.320;2022-12-20T15:03:52;10.07;;;2.97;;
27505;SDS011;14939;43.596;1.320;2022-12-20T15:06:33;10.07;;;3.90;;
27505;SDS011;14939;43.596;1.320;2022-12-20T15:11:30;12.02;;;3.15;;
27505;SDS011;14939;43.596;1.320;2022-12-20T15:13:59;13.13;;;3.10;;
27505;SDS011;14939;43.596;1.320;2022-12-20T15:16:26;12.70;;;3.22;;
27505;SDS011;14939;43.596;1.320;2022-12-20T15:19:00;10.90;;;2.83;;
27505;SDS011;14939;43.596;1.320;2022-12-20T15:21:36;12.60;;;3.28;;
27505;SDS011;14939;43.596;1.320;2022-12-20T15:24:25;17.52;;;3.50;;
27505;SDS011;14939;43.596;1.320;2022-12-20T15:26:53;15.25;;;3.55;;
27505;SDS011;14939;43.596;1.320;2022-12-20T15:29:20;11.80;;;3.30;;
27505;SDS011;14939;43.596;1.320;2022-12-20T15:31:50;10.70;;;3.60;;
27505;SDS011;14939;43.596;1.320;2022-12-20T15:36:53;10.45;;;3.00;;
27505;SDS011;14939;43.596;1.320;2022-12-20T15:39:18;11.13;;;3.38;;
27505;SDS011;14939;43.596;1.320;2022-12-20T15:41:46;14.20;;;3.53;;
27505;SDS011;14939;43.596;1.320;2022-12-20T15:44:14;9.25;;;3.28;;
27505;SDS011;14939;43.596;1.320;2022-12-20T15:46:45;9.20;;;2.97;;
27505;SDS011;14939;43.596;1.320;2022-12-20T15:49:14;12.20;;;3.58;;
27505;SDS011;14939;43.596;1.320;2022-12-20T15:51:41;10.10;;;3.40;;
27505;SDS011;14939;43.596;1.320;2022-12-20T15:54:50;9.82;;;3.72;;
27505;SDS011;14939;43.596;1.320;2022-12-20T15:57:00;16.67;;;3.90;;
27505;SDS011;14939;43.596;1.320;2022-12-20T15:59:29;14.60;;;4.40;;
27505;SDS011;14939;43.596;1.320;2022-12-20T16:01:55;12.85;;;3.92;;
27505;SDS011;14939;43.596;1.320;2022-12-20T16:04:21;15.90;;;3.83;;
27505;SDS011;14939;43.596;1.320;2022-12-20T16:06:48;12.95;;;4.15;;
27505;SDS011;14939;43.596;1.320;2022-12-20T16:09:17;19.35;;;4.03;;
27505;SDS011;14939;43.596;1.320;2022-12-20T16:11:43;13.35;;;4.10;;
27505;SDS011;14939;43.596;1.320;2022-12-20T16:14:14;14.65;;;4.07;;
27505;SDS011;14939;43.596;1.320;2022-12-20T16:16:41;12.32;;;3.65;;
27505;SDS011;14939;43.596;1.320;2022-12-20T16:19:08;14.85;;;4.18;;
27505;SDS011;14939;43.596;1.320;2022-12-20T16:21:35;15.88;;;4.18;;
27505;SDS011;14939;43.596;1.320;2022-12-20T16:24:11;18.77;;;8.02;;
27505;SDS011;14939;43.596;1.320;2022-12-20T16:26:38;15.27;;;5.75;;
27505;SDS011;14939;43.596;1.320;2022-12-20T16:29:04;13.65;;;5.30;;
27505;SDS011;14939;43.596;1.320;2022-12-20T16:31:34;13.30;;;4.40;;
27505;SDS011;14939;43.596;1.320;2022-12-20T16:34:05;17.10;;;4.63;;
27505;SDS011;14939;43.596;1.320;2022-12-20T16:36:34;18.70;;;4.95;;
27505;SDS011;14939;43.596;1.320;2022-12-20T16:38:59;13.45;;;5.13;;
27505;SDS011;14939;43.596;1.320;2022-12-20T16:41:26;13.05;;;5.07;;
27505;SDS011;14939;43.596;1.320;2022-12-20T16:43:54;13.65;;;6.40;;
27505;SDS011;14939;43.596;1.320;2022-12-20T16:46:22;20.55;;;5.35;;
27505;SDS011;14939;43.596;1.320;2022-12-20T16:48:51;11.43;;;5.20;;
27505;SDS011;14939;43.596;1.320;2022-12-20T16:53:50;12.93;;;5.75;;
27505;SDS011;14939;43.596;1.320;2022-12-20T16:56:17;15.55;;;4.90;;
27505;SDS011;14939;43.596;1.320;2022-12-20T16:58:43;23.98;;;5.57;;
27505;SDS011;14939;43.596;1.320;2022-12-20T17:01:16;12.90;;;4.57;;
27505;SDS011;14939;43.596;1.320;2022-12-20T17:03:44;17.80;;;4.75;;
27505;SDS011;14939;43.596;1.320;2022-12-20T17:06:11;16.80;;;5.00;;
27505;SDS011;14939;43.596;1.320;2022-12-20T17:08:37;13.73;;;5.13;;
27505;SDS011;14939;43.596;1.320;2022-12-20T17:13:38;13.48;;;4.60;;
27505;SDS011;14939;43.596;1.320;2022-12-20T17:16:04;14.60;;;5.20;;
27505;SDS011;14939;43.596;1.320;2022-12-20T17:18:30;18.98;;;5.47;;
27505;SDS011;14939;43.596;1.320;2022-12-20T17:20:56;15.40;;;4.90;;
27505;SDS011;14939;43.596;1.320;2022-12-20T17:23:21;16.67;;;4.88;;
27505;SDS011;14939;43.596;1.320;2022-12-20T17:25:47;12.63;;;4.95;;
27505;SDS011;14939;43.596;1.320;2022-12-20T17:28:13;17.33;;;5.10;;
27505;SDS011;14939;43.596;1.320;2022-12-20T17:30:38;18.30;;;4.80;;